Shell Fueler — WZW7217 — position and weather

sailwx.info

Track history (hours):
 
Tides and Currents Weather Stations Pressure Air Temp Water Temp Dewpoint Dewpoint Depression Visibility Wind Speed Wind Dir Waves Ship Positions

Shell Fueler

Owner: JOHN W STONE OIL DIST .LLC, GRETNA, LA. More information available from US FCC via Universal Licensing System and Coast Guard Vessel Documentation Center.

Last reported at 2015-Jul-04 14:31 UTC. Time now 2015-Jul-04 15:21 UTC.
Position N 29°56' W 089°59'.

Length 21 m; draft 2.5 m.

Type: Towing. MMSI: 366954210.

Date/timePositionNaut miles runAvg speedWind from/ knotsBaromVisibWave heightAir tempDewpointWater temp
2015-Jul-04 14:31N 29°56' W 089°59'4 3.6
2015-Jul-04 13:28N 29°56' W 090°04'0 0.1
2015-Jul-04 12:33N 29°55' W 090°04'0 0.0
2015-Jul-04 11:26N 29°55' W 090°04'0 0.0
2015-Jul-04 10:33N 29°55' W 090°04'0 0.0
2015-Jul-04 09:31N 29°55' W 090°04'0 0.0
2015-Jul-04 08:30N 29°55' W 090°04'0 0.0
2015-Jul-04 07:27N 29°55' W 090°04'0 0.0
2015-Jul-04 06:33N 29°55' W 090°04'  
2015-Jun-29 12:20N 29°55' W 090°05'1 0.7
2015-Jun-29 11:27N 29°55' W 090°05'1 1.0
2015-Jun-29 10:30N 29°55' W 090°04'0 0.0
2015-Jun-29 09:30N 29°55' W 090°04'1 1.5
2015-Jun-29 08:33N 29°57' W 090°03'3 2.5
2015-Jun-29 07:32N 29°56' W 090°01'0 0.2
2015-Jun-29 06:33N 29°56' W 090°00'0 0.0
2015-Jun-29 05:32N 29°56' W 090°00'1 0.6
2015-Jun-29 04:25N 29°56' W 089°60'3 4.0
2015-Jun-29 03:33N 29°55' W 090°04'0 0.1
2015-Jun-29 02:28N 29°56' W 090°04'0 0.0
2015-Jun-29 01:33N 29°56' W 090°04'0 0.0
2015-Jun-29 00:33N 29°56' W 090°04'0 0.0
2015-Jun-28 23:32N 29°56' W 090°04'0 0.0
2015-Jun-28 22:32N 29°56' W 090°04'0 0.0
2015-Jun-28 21:31N 29°56' W 090°04'0 0.0
2015-Jun-28 20:33N 29°56' W 090°04'0 0.2
2015-Jun-28 19:26N 29°56' W 090°03'5 0.5
2015-Jun-28 09:25N 29°57' W 090°09'4 3.9
2015-Jun-28 08:29N 29°55' W 090°05'1 1.4
2015-Jun-28 07:29N 29°56' W 090°04'0 0.0
2015-Jun-28 06:23N 29°56' W 090°04'0 0.0
2015-Jun-28 05:23N 29°56' W 090°04'28 0.6
2015-Jun-26 05:17N 29°32' W 090°20'2 2.7
2015-Jun-26 04:33N 29°34' W 090°21'2 2.0
2015-Jun-26 03:33N 29°35' W 090°22'26 1.3
2015-Jun-25 07:08N 29°55' W 090°04'0 0.0
2015-Jun-25 06:32N 29°55' W 090°04'0 0.0
2015-Jun-25 05:33N 29°55' W 090°04'0 0.0
2015-Jun-25 04:32N 29°55' W 090°04'0 0.0
2015-Jun-25 03:33N 29°55' W 090°04'0 0.2
2015-Jun-25 02:31N 29°56' W 090°04'0 0.2
2015-Jun-25 01:19N 29°56' W 090°03'0 0.0
2015-Jun-25 00:26N 29°56' W 090°03'  
Track history (hours):
 
Tides and Currents Weather Stations Pressure Air Temp Water Temp Dewpoint Dewpoint Depression Visibility Wind Speed Wind Dir Waves Ship Positions

Shell Fueler

Owner: JOHN W STONE OIL DIST .LLC, GRETNA, LA. More information available from US FCC via Universal Licensing System and Coast Guard Vessel Documentation Center.

Last reported at 2015-Jul-04 14:31 UTC. Time now 2015-Jul-04 15:21 UTC.
Position N 29°56' W 089°59'.

Length 21 m; draft 2.5 m.

Type: Towing. MMSI: 366954210.

Date/timePositionNaut miles runAvg speedWind from/ knotsBaromVisibWave heightAir tempDewpointWater temp
2015-Jul-04 14:31N 29°56' W 089°59'4 3.6
2015-Jul-04 13:28N 29°56' W 090°04'0 0.1
2015-Jul-04 12:33N 29°55' W 090°04'0 0.0
2015-Jul-04 11:26N 29°55' W 090°04'0 0.0
2015-Jul-04 10:33N 29°55' W 090°04'0 0.0
2015-Jul-04 09:31N 29°55' W 090°04'0 0.0
2015-Jul-04 08:30N 29°55' W 090°04'0 0.0
2015-Jul-04 07:27N 29°55' W 090°04'0 0.0
2015-Jul-04 06:33N 29°55' W 090°04'  
2015-Jun-29 12:20N 29°55' W 090°05'1 0.7
2015-Jun-29 11:27N 29°55' W 090°05'1 1.0
2015-Jun-29 10:30N 29°55' W 090°04'0 0.0
2015-Jun-29 09:30N 29°55' W 090°04'1 1.5
2015-Jun-29 08:33N 29°57' W 090°03'3 2.5
2015-Jun-29 07:32N 29°56' W 090°01'0 0.2
2015-Jun-29 06:33N 29°56' W 090°00'0 0.0
2015-Jun-29 05:32N 29°56' W 090°00'1 0.6
2015-Jun-29 04:25N 29°56' W 089°60'3 4.0
2015-Jun-29 03:33N 29°55' W 090°04'0 0.1
2015-Jun-29 02:28N 29°56' W 090°04'0 0.0
2015-Jun-29 01:33N 29°56' W 090°04'0 0.0
2015-Jun-29 00:33N 29°56' W 090°04'0 0.0
2015-Jun-28 23:32N 29°56' W 090°04'0 0.0
2015-Jun-28 22:32N 29°56' W 090°04'0 0.0
2015-Jun-28 21:31N 29°56' W 090°04'0 0.0
2015-Jun-28 20:33N 29°56' W 090°04'0 0.2
2015-Jun-28 19:26N 29°56' W 090°03'5 0.5
2015-Jun-28 09:25N 29°57' W 090°09'4 3.9
2015-Jun-28 08:29N 29°55' W 090°05'1 1.4
2015-Jun-28 07:29N 29°56' W 090°04'0 0.0
2015-Jun-28 06:23N 29°56' W 090°04'0 0.0
2015-Jun-28 05:23N 29°56' W 090°04'28 0.6
2015-Jun-26 05:17N 29°32' W 090°20'2 2.7
2015-Jun-26 04:33N 29°34' W 090°21'2 2.0
2015-Jun-26 03:33N 29°35' W 090°22'26 1.3
2015-Jun-25 07:08N 29°55' W 090°04'0 0.0
2015-Jun-25 06:32N 29°55' W 090°04'0 0.0
2015-Jun-25 05:33N 29°55' W 090°04'0 0.0
2015-Jun-25 04:32N 29°55' W 090°04'0 0.0
2015-Jun-25 03:33N 29°55' W 090°04'0 0.2
2015-Jun-25 02:31N 29°56' W 090°04'0 0.2
2015-Jun-25 01:19N 29°56' W 090°03'0 0.0
2015-Jun-25 00:26N 29°56' W 090°03'  

Dump ship's entire track history